sensor_id;sensor_type;location;lat;lon;timestamp;temperature;humidity
23100;DHT22;53791;50.696;4.396;2023-05-18T00:00:38;9.30;99.90
23100;DHT22;53791;50.696;4.396;2023-05-18T00:03:06;9.30;99.90
23100;DHT22;53791;50.696;4.396;2023-05-18T00:05:34;9.30;99.90
23100;DHT22;53791;50.696;4.396;2023-05-18T00:08:02;9.30;99.90
23100;DHT22;53791;50.696;4.396;2023-05-18T00:10:30;9.30;99.90
23100;DHT22;53791;50.696;4.396;2023-05-18T00:12:57;9.30;99.90
23100;DHT22;53791;50.696;4.396;2023-05-18T00:15:25;9.20;99.90
23100;DHT22;53791;50.696;4.396;2023-05-18T00:17:52;9.20;99.90
23100;DHT22;53791;50.696;4.396;2023-05-18T00:20:20;9.20;99.90
23100;DHT22;53791;50.696;4.396;2023-05-18T00:22:49;9.20;99.90
23100;DHT22;53791;50.696;4.396;2023-05-18T00:25:16;9.10;99.90
23100;DHT22;53791;50.696;4.396;2023-05-18T00:27:44;9.10;99.90
23100;DHT22;53791;50.696;4.396;2023-05-18T00:30:12;9.10;99.90
23100;DHT22;53791;50.696;4.396;2023-05-18T00:32:40;9.10;99.90
23100;DHT22;53791;50.696;4.396;2023-05-18T00:35:12;9.10;99.90
23100;DHT22;53791;50.696;4.396;2023-05-18T00:37:36;9.00;99.90
23100;DHT22;53791;50.696;4.396;2023-05-18T00:40:04;9.10;99.90
23100;DHT22;53791;50.696;4.396;2023-05-18T00:42:32;9.10;99.90
23100;DHT22;53791;50.696;4.396;2023-05-18T00:44:59;9.00;99.90
23100;DHT22;53791;50.696;4.396;2023-05-18T00:47:27;9.00;99.90
23100;DHT22;53791;50.696;4.396;2023-05-18T00:49:54;9.00;99.90
23100;DHT22;53791;50.696;4.396;2023-05-18T00:52:24;9.10;99.90
23100;DHT22;53791;50.696;4.396;2023-05-18T00:54:52;9.10;99.90
23100;DHT22;53791;50.696;4.396;2023-05-18T00:57:20;9.10;99.90
23100;DHT22;53791;50.696;4.396;2023-05-18T00:59:48;9.00;99.90
23100;DHT22;53791;50.696;4.396;2023-05-18T01:02:16;9.00;99.90
23100;DHT22;53791;50.696;4.396;2023-05-18T01:04:45;9.00;99.90
23100;DHT22;53791;50.696;4.396;2023-05-18T01:07:13;8.90;99.90
23100;DHT22;53791;50.696;4.396;2023-05-18T01:09:42;8.90;99.90
23100;DHT22;53791;50.696;4.396;2023-05-18T01:12:16;8.90;99.90
23100;DHT22;53791;50.696;4.396;2023-05-18T01:26:33;8.80;99.90
23100;DHT22;53791;50.696;4.396;2023-05-18T01:29:00;8.70;99.90
23100;DHT22;53791;50.696;4.396;2023-05-18T01:31:28;8.70;99.90
23100;DHT22;53791;50.696;4.396;2023-05-18T01:33:56;8.70;99.90
23100;DHT22;53791;50.696;4.396;2023-05-18T01:36:23;8.60;99.90
23100;DHT22;53791;50.696;4.396;2023-05-18T01:38:52;8.70;99.90
23100;DHT22;53791;50.696;4.396;2023-05-18T01:41:24;8.70;99.90
23100;DHT22;53791;50.696;4.396;2023-05-18T01:44:05;8.70;99.90
23100;DHT22;53791;50.696;4.396;2023-05-18T01:46:34;8.70;99.90
23100;DHT22;53791;50.696;4.396;2023-05-18T01:49:10;8.60;99.90
23100;DHT22;53791;50.696;4.396;2023-05-18T01:51:38;8.60;99.90
23100;DHT22;53791;50.696;4.396;2023-05-18T01:54:07;8.60;99.90
23100;DHT22;53791;50.696;4.396;2023-05-18T01:56:37;8.60;99.90
23100;DHT22;53791;50.696;4.396;2023-05-18T01:59:05;8.60;99.90
23100;DHT22;53791;50.696;4.396;2023-05-18T02:01:33;8.50;99.90
23100;DHT22;53791;50.696;4.396;2023-05-18T02:04:00;8.50;99.90
23100;DHT22;53791;50.696;4.396;2023-05-18T02:06:28;8.40;99.90
23100;DHT22;53791;50.696;4.396;2023-05-18T02:08:56;8.40;99.90
23100;DHT22;53791;50.696;4.396;2023-05-18T02:11:24;8.40;99.90
23100;DHT22;53791;50.696;4.396;2023-05-18T02:13:51;8.40;99.90
23100;DHT22;53791;50.696;4.396;2023-05-18T02:16:19;8.30;99.90
23100;DHT22;53791;50.696;4.396;2023-05-18T02:18:46;8.30;99.90
23100;DHT22;53791;50.696;4.396;2023-05-18T02:21:14;8.20;99.90
23100;DHT22;53791;50.696;4.396;2023-05-18T02:23:41;8.30;99.90
23100;DHT22;53791;50.696;4.396;2023-05-18T02:26:09;8.20;99.90
23100;DHT22;53791;50.696;4.396;2023-05-18T02:28:37;8.20;99.90
23100;DHT22;53791;50.696;4.396;2023-05-18T02:31:09;8.20;99.90
23100;DHT22;53791;50.696;4.396;2023-05-18T02:33:38;8.10;99.90
23100;DHT22;53791;50.696;4.396;2023-05-18T02:36:08;8.10;99.90
23100;DHT22;53791;50.696;4.396;2023-05-18T02:38:37;8.20;99.90
23100;DHT22;53791;50.696;4.396;2023-05-18T02:41:05;8.30;99.90
23100;DHT22;53791;50.696;4.396;2023-05-18T02:43:33;8.00;99.90
23100;DHT22;53791;50.696;4.396;2023-05-18T02:46:00;7.80;99.90
23100;DHT22;53791;50.696;4.396;2023-05-18T02:48:28;8.00;99.90
23100;DHT22;53791;50.696;4.396;2023-05-18T02:50:56;8.00;99.90
23100;DHT22;53791;50.696;4.396;2023-05-18T02:53:24;8.00;99.90
23100;DHT22;53791;50.696;4.396;2023-05-18T02:55:55;8.00;99.90
23100;DHT22;53791;50.696;4.396;2023-05-18T02:58:26;7.90;99.90
23100;DHT22;53791;50.696;4.396;2023-05-18T03:00:54;7.90;99.90
23100;DHT22;53791;50.696;4.396;2023-05-18T03:03:22;8.00;99.90
23100;DHT22;53791;50.696;4.396;2023-05-18T03:05:51;7.90;99.90
23100;DHT22;53791;50.696;4.396;2023-05-18T03:08:21;7.90;99.90
23100;DHT22;53791;50.696;4.396;2023-05-18T03:10:49;7.90;99.90
23100;DHT22;53791;50.696;4.396;2023-05-18T03:13:16;7.80;99.90
23100;DHT22;53791;50.696;4.396;2023-05-18T03:15:44;7.80;99.90
23100;DHT22;53791;50.696;4.396;2023-05-18T03:18:12;7.80;99.90
23100;DHT22;53791;50.696;4.396;2023-05-18T03:20:40;7.80;99.90
23100;DHT22;53791;50.696;4.396;2023-05-18T03:23:07;7.80;99.90
23100;DHT22;53791;50.696;4.396;2023-05-18T03:25:35;7.70;99.90
23100;DHT22;53791;50.696;4.396;2023-05-18T03:28:05;7.60;99.90
23100;DHT22;53791;50.696;4.396;2023-05-18T03:30:33;7.70;99.90
23100;DHT22;53791;50.696;4.396;2023-05-18T03:33:02;7.70;99.90
23100;DHT22;53791;50.696;4.396;2023-05-18T03:35:29;7.70;99.90
23100;DHT22;53791;50.696;4.396;2023-05-18T03:37:58;7.60;99.90
23100;DHT22;53791;50.696;4.396;2023-05-18T03:40:25;7.60;99.90
23100;DHT22;53791;50.696;4.396;2023-05-18T03:42:52;7.40;99.90
23100;DHT22;53791;50.696;4.396;2023-05-18T03:45:20;7.30;99.90
23100;DHT22;53791;50.696;4.396;2023-05-18T03:47:47;7.40;99.90
23100;DHT22;53791;50.696;4.396;2023-05-18T03:50:15;7.40;99.90
23100;DHT22;53791;50.696;4.396;2023-05-18T03:52:43;7.30;99.90
23100;DHT22;53791;50.696;4.396;2023-05-18T03:55:11;7.20;99.90
23100;DHT22;53791;50.696;4.396;2023-05-18T03:57:39;7.10;99.90
23100;DHT22;53791;50.696;4.396;2023-05-18T04:00:07;7.20;99.90
23100;DHT22;53791;50.696;4.396;2023-05-18T04:02:36;7.10;99.90
23100;DHT22;53791;50.696;4.396;2023-05-18T04:05:04;7.20;99.90
23100;DHT22;53791;50.696;4.396;2023-05-18T04:07:32;7.10;99.90
23100;DHT22;53791;50.696;4.396;2023-05-18T04:09:59;7.00;99.90
23100;DHT22;53791;50.696;4.396;2023-05-18T04:12:27;7.10;99.90
23100;DHT22;53791;50.696;4.396;2023-05-18T04:14:55;7.00;99.90
23100;DHT22;53791;50.696;4.396;2023-05-18T04:17:24;7.10;99.90
23100;DHT22;53791;50.696;4.396;2023-05-18T04:19:51;7.10;99.90
23100;DHT22;53791;50.696;4.396;2023-05-18T04:22:19;7.20;99.90
23100;DHT22;53791;50.696;4.396;2023-05-18T04:24:47;7.20;99.90
23100;DHT22;53791;50.696;4.396;2023-05-18T04:27:15;7.30;99.90
23100;DHT22;53791;50.696;4.396;2023-05-18T04:29:43;7.20;99.90
23100;DHT22;53791;50.696;4.396;2023-05-18T04:32:12;7.20;99.90
23100;DHT22;53791;50.696;4.396;2023-05-18T04:34:40;7.10;99.90
23100;DHT22;53791;50.696;4.396;2023-05-18T04:37:07;7.00;99.90
23100;DHT22;53791;50.696;4.396;2023-05-18T04:39:36;7.10;99.90
23100;DHT22;53791;50.696;4.396;2023-05-18T04:42:05;7.00;99.90
23100;DHT22;53791;50.696;4.396;2023-05-18T04:44:32;7.00;99.90
23100;DHT22;53791;50.696;4.396;2023-05-18T04:47:00;7.10;99.90
23100;DHT22;53791;50.696;4.396;2023-05-18T04:49:28;7.10;99.90
23100;DHT22;53791;50.696;4.396;2023-05-18T04:51:57;7.00;99.90
23100;DHT22;53791;50.696;4.396;2023-05-18T04:54:27;7.00;99.90
23100;DHT22;53791;50.696;4.396;2023-05-18T04:56:57;6.90;99.90
23100;DHT22;53791;50.696;4.396;2023-05-18T04:59:24;7.10;99.90
23100;DHT22;53791;50.696;4.396;2023-05-18T05:01:54;7.00;99.90
23100;DHT22;53791;50.696;4.396;2023-05-18T05:04:22;6.90;99.90
23100;DHT22;53791;50.696;4.396;2023-05-18T05:06:50;6.80;99.90
23100;DHT22;53791;50.696;4.396;2023-05-18T05:09:17;6.80;99.90
23100;DHT22;53791;50.696;4.396;2023-05-18T05:11:45;7.00;99.90
23100;DHT22;53791;50.696;4.396;2023-05-18T05:14:12;7.00;99.90
23100;DHT22;53791;50.696;4.396;2023-05-18T05:16:40;7.10;99.90
23100;DHT22;53791;50.696;4.396;2023-05-18T05:19:08;7.00;99.90
23100;DHT22;53791;50.696;4.396;2023-05-18T05:21:35;7.00;99.90
23100;DHT22;53791;50.696;4.396;2023-05-18T05:24:03;7.10;99.90
23100;DHT22;53791;50.696;4.396;2023-05-18T05:26:31;7.10;99.90
23100;DHT22;53791;50.696;4.396;2023-05-18T05:28:58;7.00;99.90
23100;DHT22;53791;50.696;4.396;2023-05-18T05:31:26;7.10;99.90
23100;DHT22;53791;50.696;4.396;2023-05-18T05:33:53;7.20;99.90
23100;DHT22;53791;50.696;4.396;2023-05-18T05:36:23;7.20;99.90
23100;DHT22;53791;50.696;4.396;2023-05-18T05:38:50;7.10;99.90
23100;DHT22;53791;50.696;4.396;2023-05-18T05:41:18;7.20;99.90
23100;DHT22;53791;50.696;4.396;2023-05-18T05:43:47;7.30;99.90
23100;DHT22;53791;50.696;4.396;2023-05-18T05:46:14;7.30;99.90
23100;DHT22;53791;50.696;4.396;2023-05-18T05:48:41;7.30;99.90
23100;DHT22;53791;50.696;4.396;2023-05-18T05:51:09;7.30;99.90
23100;DHT22;53791;50.696;4.396;2023-05-18T05:53:37;7.30;99.90
23100;DHT22;53791;50.696;4.396;2023-05-18T05:56:05;7.20;99.90
23100;DHT22;53791;50.696;4.396;2023-05-18T05:58:33;7.40;99.90
23100;DHT22;53791;50.696;4.396;2023-05-18T06:01:01;7.40;99.90
23100;DHT22;53791;50.696;4.396;2023-05-18T06:03:28;7.50;99.90
23100;DHT22;53791;50.696;4.396;2023-05-18T06:05:56;7.60;99.90
23100;DHT22;53791;50.696;4.396;2023-05-18T06:08:24;7.60;99.90
23100;DHT22;53791;50.696;4.396;2023-05-18T06:10:52;7.70;99.90
23100;DHT22;53791;50.696;4.396;2023-05-18T06:13:19;7.80;99.90
23100;DHT22;53791;50.696;4.396;2023-05-18T06:15:47;8.00;99.90
23100;DHT22;53791;50.696;4.396;2023-05-18T06:18:14;8.30;99.90
23100;DHT22;53791;50.696;4.396;2023-05-18T06:20:42;8.60;99.90
23100;DHT22;53791;50.696;4.396;2023-05-18T06:23:09;8.80;99.90
23100;DHT22;53791;50.696;4.396;2023-05-18T06:25:37;9.00;99.90
23100;DHT22;53791;50.696;4.396;2023-05-18T06:28:04;9.00;99.90
23100;DHT22;53791;50.696;4.396;2023-05-18T06:30:32;8.90;99.90
23100;DHT22;53791;50.696;4.396;2023-05-18T06:32:59;8.90;99.90
23100;DHT22;53791;50.696;4.396;2023-05-18T06:35:27;8.90;99.90
23100;DHT22;53791;50.696;4.396;2023-05-18T06:37:54;9.00;99.90
23100;DHT22;53791;50.696;4.396;2023-05-18T06:40:22;9.20;99.90
23100;DHT22;53791;50.696;4.396;2023-05-18T06:42:49;9.10;99.90
23100;DHT22;53791;50.696;4.396;2023-05-18T06:45:17;9.00;99.90
23100;DHT22;53791;50.696;4.396;2023-05-18T06:47:45;9.10;99.90
23100;DHT22;53791;50.696;4.396;2023-05-18T06:50:13;9.10;99.90
23100;DHT22;53791;50.696;4.396;2023-05-18T06:52:41;9.00;99.90
23100;DHT22;53791;50.696;4.396;2023-05-18T06:55:08;9.20;99.90
23100;DHT22;53791;50.696;4.396;2023-05-18T06:57:36;9.40;99.90
23100;DHT22;53791;50.696;4.396;2023-05-18T07:00:04;9.60;99.90
23100;DHT22;53791;50.696;4.396;2023-05-18T07:02:33;9.70;99.90
23100;DHT22;53791;50.696;4.396;2023-05-18T07:05:01;9.80;99.90
23100;DHT22;53791;50.696;4.396;2023-05-18T07:07:30;10.10;99.90
23100;DHT22;53791;50.696;4.396;2023-05-18T07:09:57;10.40;99.90
23100;DHT22;53791;50.696;4.396;2023-05-18T07:12:25;10.60;99.90
23100;DHT22;53791;50.696;4.396;2023-05-18T07:14:53;10.80;99.90
23100;DHT22;53791;50.696;4.396;2023-05-18T07:17:21;11.00;99.90
23100;DHT22;53791;50.696;4.396;2023-05-18T07:19:48;11.00;99.90
23100;DHT22;53791;50.696;4.396;2023-05-18T07:22:16;10.90;99.90
23100;DHT22;53791;50.696;4.396;2023-05-18T07:24:43;11.20;99.90
23100;DHT22;53791;50.696;4.396;2023-05-18T07:27:11;11.30;99.90
23100;DHT22;53791;50.696;4.396;2023-05-18T07:29:38;11.70;99.90
23100;DHT22;53791;50.696;4.396;2023-05-18T07:32:07;11.90;99.90
23100;DHT22;53791;50.696;4.396;2023-05-18T07:34:35;12.10;99.90
23100;DHT22;53791;50.696;4.396;2023-05-18T07:37:02;12.20;99.90
23100;DHT22;53791;50.696;4.396;2023-05-18T07:39:30;12.40;99.90
23100;DHT22;53791;50.696;4.396;2023-05-18T07:41:58;12.30;99.90
23100;DHT22;53791;50.696;4.396;2023-05-18T07:44:26;12.10;99.90
23100;DHT22;53791;50.696;4.396;2023-05-18T07:46:53;12.00;99.90
23100;DHT22;53791;50.696;4.396;2023-05-18T07:49:21;12.30;99.90
23100;DHT22;53791;50.696;4.396;2023-05-18T07:51:51;12.50;99.90
23100;DHT22;53791;50.696;4.396;2023-05-18T07:54:19;12.80;99.90
23100;DHT22;53791;50.696;4.396;2023-05-18T07:56:47;12.90;99.90
23100;DHT22;53791;50.696;4.396;2023-05-18T07:59:14;13.10;99.90
23100;DHT22;53791;50.696;4.396;2023-05-18T08:01:42;13.30;99.90
23100;DHT22;53791;50.696;4.396;2023-05-18T08:04:11;13.60;99.90
23100;DHT22;53791;50.696;4.396;2023-05-18T08:06:38;13.80;99.90
23100;DHT22;53791;50.696;4.396;2023-05-18T08:09:06;13.70;99.90
23100;DHT22;53791;50.696;4.396;2023-05-18T08:11:33;13.80;99.90
23100;DHT22;53791;50.696;4.396;2023-05-18T08:14:01;13.50;99.90
23100;DHT22;53791;50.696;4.396;2023-05-18T08:16:28;13.40;99.90
23100;DHT22;53791;50.696;4.396;2023-05-18T08:18:56;13.60;99.90
23100;DHT22;53791;50.696;4.396;2023-05-18T08:21:24;13.80;99.90
23100;DHT22;53791;50.696;4.396;2023-05-18T08:23:52;14.00;99.90
23100;DHT22;53791;50.696;4.396;2023-05-18T08:26:20;14.10;99.90
23100;DHT22;53791;50.696;4.396;2023-05-18T08:28:47;14.20;99.90
23100;DHT22;53791;50.696;4.396;2023-05-18T08:31:15;14.50;99.90
23100;DHT22;53791;50.696;4.396;2023-05-18T08:33:42;14.70;99.90
23100;DHT22;53791;50.696;4.396;2023-05-18T08:36:10;15.00;99.90
23100;DHT22;53791;50.696;4.396;2023-05-18T08:38:38;15.30;99.90
23100;DHT22;53791;50.696;4.396;2023-05-18T08:41:24;15.50;99.90
23100;DHT22;53791;50.696;4.396;2023-05-18T08:43:52;15.70;99.90
23100;DHT22;53791;50.696;4.396;2023-05-18T08:46:28;16.10;99.90
23100;DHT22;53791;50.696;4.396;2023-05-18T08:48:52;16.50;99.90
23100;DHT22;53791;50.696;4.396;2023-05-18T08:51:21;16.80;99.90
23100;DHT22;53791;50.696;4.396;2023-05-18T08:53:51;17.00;99.90
23100;DHT22;53791;50.696;4.396;2023-05-18T08:56:23;16.80;99.90
23100;DHT22;53791;50.696;4.396;2023-05-18T08:58:55;16.70;99.90
23100;DHT22;53791;50.696;4.396;2023-05-18T09:01:26;16.60;99.90
23100;DHT22;53791;50.696;4.396;2023-05-18T09:03:57;16.90;99.90
23100;DHT22;53791;50.696;4.396;2023-05-18T09:06:25;17.10;99.90
23100;DHT22;53791;50.696;4.396;2023-05-18T09:08:55;16.50;99.90
23100;DHT22;53791;50.696;4.396;2023-05-18T09:11:24;16.10;99.90
23100;DHT22;53791;50.696;4.396;2023-05-18T09:13:54;15.70;99.90
23100;DHT22;53791;50.696;4.396;2023-05-18T09:16:21;15.80;99.90
23100;DHT22;53791;50.696;4.396;2023-05-18T09:18:49;15.90;99.90
23100;DHT22;53791;50.696;4.396;2023-05-18T09:21:17;15.70;99.90
23100;DHT22;53791;50.696;4.396;2023-05-18T09:23:45;16.00;99.90
23100;DHT22;53791;50.696;4.396;2023-05-18T09:26:13;15.70;99.90
23100;DHT22;53791;50.696;4.396;2023-05-18T09:28:42;15.90;99.90
23100;DHT22;53791;50.696;4.396;2023-05-18T09:31:16;16.40;99.90
23100;DHT22;53791;50.696;4.396;2023-05-18T09:33:43;16.00;99.90
23100;DHT22;53791;50.696;4.396;2023-05-18T09:36:11;16.10;99.90
23100;DHT22;53791;50.696;4.396;2023-05-18T09:38:42;16.40;99.90
23100;DHT22;53791;50.696;4.396;2023-05-18T09:41:15;16.20;99.90
23100;DHT22;53791;50.696;4.396;2023-05-18T09:43:47;15.70;99.90
23100;DHT22;53791;50.696;4.396;2023-05-18T09:46:14;15.90;99.90
23100;DHT22;53791;50.696;4.396;2023-05-18T09:48:49;16.00;99.90
23100;DHT22;53791;50.696;4.396;2023-05-18T09:51:17;16.10;99.90
23100;DHT22;53791;50.696;4.396;2023-05-18T09:53:49;16.30;99.90
23100;DHT22;53791;50.696;4.396;2023-05-18T09:56:17;16.60;99.90
23100;DHT22;53791;50.696;4.396;2023-05-18T09:58:45;16.90;99.90
23100;DHT22;53791;50.696;4.396;2023-05-18T10:01:13;16.60;99.90
23100;DHT22;53791;50.696;4.396;2023-05-18T10:03:41;16.30;99.90
23100;DHT22;53791;50.696;4.396;2023-05-18T10:06:11;16.60;99.90
23100;DHT22;53791;50.696;4.396;2023-05-18T10:08:39;16.60;99.90
23100;DHT22;53791;50.696;4.396;2023-05-18T10:11:07;16.80;99.90
23100;DHT22;53791;50.696;4.396;2023-05-18T10:13:35;17.10;99.90
23100;DHT22;53791;50.696;4.396;2023-05-18T10:16:04;17.60;99.90
23100;DHT22;53791;50.696;4.396;2023-05-18T10:18:34;17.90;99.90
23100;DHT22;53791;50.696;4.396;2023-05-18T10:21:04;18.10;99.90
23100;DHT22;53791;50.696;4.396;2023-05-18T10:23:34;18.40;99.90
23100;DHT22;53791;50.696;4.396;2023-05-18T10:26:06;18.30;99.90
23100;DHT22;53791;50.696;4.396;2023-05-18T10:28:43;18.10;99.90
23100;DHT22;53791;50.696;4.396;2023-05-18T10:31:14;17.60;99.90
23100;DHT22;53791;50.696;4.396;2023-05-18T10:33:43;17.60;99.90
23100;DHT22;53791;50.696;4.396;2023-05-18T10:36:11;17.40;99.90
23100;DHT22;53791;50.696;4.396;2023-05-18T10:38:39;17.20;99.90
23100;DHT22;53791;50.696;4.396;2023-05-18T10:41:11;16.80;99.90
23100;DHT22;53791;50.696;4.396;2023-05-18T10:43:40;16.80;99.90
23100;DHT22;53791;50.696;4.396;2023-05-18T10:46:09;17.00;99.90
23100;DHT22;53791;50.696;4.396;2023-05-18T10:48:40;17.30;99.90
23100;DHT22;53791;50.696;4.396;2023-05-18T10:51:08;17.20;99.90
23100;DHT22;53791;50.696;4.396;2023-05-18T10:53:37;17.40;99.90
23100;DHT22;53791;50.696;4.396;2023-05-18T10:56:07;17.40;99.90
23100;DHT22;53791;50.696;4.396;2023-05-18T10:58:36;17.50;99.90
23100;DHT22;53791;50.696;4.396;2023-05-18T11:01:08;17.80;99.90
23100;DHT22;53791;50.696;4.396;2023-05-18T11:03:38;18.00;99.90
23100;DHT22;53791;50.696;4.396;2023-05-18T11:06:09;18.10;99.90
23100;DHT22;53791;50.696;4.396;2023-05-18T11:08:49;18.70;99.90
23100;DHT22;53791;50.696;4.396;2023-05-18T11:11:17;18.80;99.90
23100;DHT22;53791;50.696;4.396;2023-05-18T11:13:48;18.30;99.90
23100;DHT22;53791;50.696;4.396;2023-05-18T11:16:18;18.40;99.90
23100;DHT22;53791;50.696;4.396;2023-05-18T11:18:47;18.90;99.90
23100;DHT22;53791;50.696;4.396;2023-05-18T11:21:30;19.40;99.90
23100;DHT22;53791;50.696;4.396;2023-05-18T11:24:29;19.30;99.90
23100;DHT22;53791;50.696;4.396;2023-05-18T11:27:12;18.50;99.90
23100;DHT22;53791;50.696;4.396;2023-05-18T11:29:36;18.00;99.90
23100;DHT22;53791;50.696;4.396;2023-05-18T11:32:04;17.80;99.90
23100;DHT22;53791;50.696;4.396;2023-05-18T11:34:41;17.70;99.90
23100;DHT22;53791;50.696;4.396;2023-05-18T11:37:14;17.30;99.90
23100;DHT22;53791;50.696;4.396;2023-05-18T11:39:55;17.60;99.90
23100;DHT22;53791;50.696;4.396;2023-05-18T11:42:13;17.80;99.90
23100;DHT22;53791;50.696;4.396;2023-05-18T11:44:55;17.20;99.90
23100;DHT22;53791;50.696;4.396;2023-05-18T11:47:28;17.60;99.90
23100;DHT22;53791;50.696;4.396;2023-05-18T11:49:52;17.60;99.90
23100;DHT22;53791;50.696;4.396;2023-05-18T11:52:22;17.80;99.90
23100;DHT22;53791;50.696;4.396;2023-05-18T11:54:54;18.40;99.90
23100;DHT22;53791;50.696;4.396;2023-05-18T11:57:25;18.50;99.90
23100;DHT22;53791;50.696;4.396;2023-05-18T11:59:55;18.90;99.90
23100;DHT22;53791;50.696;4.396;2023-05-18T12:02:30;19.30;99.90
23100;DHT22;53791;50.696;4.396;2023-05-18T12:04:57;19.60;99.90
23100;DHT22;53791;50.696;4.396;2023-05-18T12:07:28;19.50;99.90
23100;DHT22;53791;50.696;4.396;2023-05-18T12:10:00;18.60;99.90
23100;DHT22;53791;50.696;4.396;2023-05-18T12:12:28;18.10;99.90
23100;DHT22;53791;50.696;4.396;2023-05-18T12:14:58;17.90;99.90
23100;DHT22;53791;50.696;4.396;2023-05-18T12:17:38;17.80;99.90
23100;DHT22;53791;50.696;4.396;2023-05-18T12:20:14;17.80;99.90
23100;DHT22;53791;50.696;4.396;2023-05-18T12:22:43;18.50;99.90
23100;DHT22;53791;50.696;4.396;2023-05-18T12:25:11;19.50;99.90
23100;DHT22;53791;50.696;4.396;2023-05-18T12:27:40;20.10;99.90
23100;DHT22;53791;50.696;4.396;2023-05-18T12:30:10;20.00;99.90
23100;DHT22;53791;50.696;4.396;2023-05-18T12:32:44;20.40;99.90
23100;DHT22;53791;50.696;4.396;2023-05-18T12:35:12;20.30;99.90
23100;DHT22;53791;50.696;4.396;2023-05-18T12:37:46;21.00;99.90
23100;DHT22;53791;50.696;4.396;2023-05-18T12:40:15;21.40;99.90
23100;DHT22;53791;50.696;4.396;2023-05-18T12:42:57;21.40;99.90
23100;DHT22;53791;50.696;4.396;2023-05-18T12:45:26;21.90;99.90
23100;DHT22;53791;50.696;4.396;2023-05-18T12:48:12;22.40;99.90
23100;DHT22;53791;50.696;4.396;2023-05-18T12:50:49;22.50;99.90
23100;DHT22;53791;50.696;4.396;2023-05-18T12:53:16;22.70;99.90
23100;DHT22;53791;50.696;4.396;2023-05-18T12:55:54;23.30;99.90
23100;DHT22;53791;50.696;4.396;2023-05-18T12:58:15;23.40;99.90
23100;DHT22;53791;50.696;4.396;2023-05-18T13:00:45;23.60;99.90
23100;DHT22;53791;50.696;4.396;2023-05-18T13:03:16;22.60;99.90
23100;DHT22;53791;50.696;4.396;2023-05-18T13:06:01;22.90;99.90
23100;DHT22;53791;50.696;4.396;2023-05-18T13:08:16;22.80;99.90
23100;DHT22;53791;50.696;4.396;2023-05-18T13:10:46;23.20;99.90
23100;DHT22;53791;50.696;4.396;2023-05-18T13:13:16;23.60;99.90
23100;DHT22;53791;50.696;4.396;2023-05-18T13:15:44;23.70;99.90
23100;DHT22;53791;50.696;4.396;2023-05-18T13:18:12;22.80;99.90
23100;DHT22;53791;50.696;4.396;2023-05-18T13:20:42;22.30;99.90
23100;DHT22;53791;50.696;4.396;2023-05-18T13:23:14;22.90;99.90
23100;DHT22;53791;50.696;4.396;2023-05-18T13:25:42;23.10;99.90
23100;DHT22;53791;50.696;4.396;2023-05-18T13:28:11;23.10;99.90
23100;DHT22;53791;50.696;4.396;2023-05-18T13:30:40;22.70;99.90
23100;DHT22;53791;50.696;4.396;2023-05-18T13:33:08;22.00;99.90
23100;DHT22;53791;50.696;4.396;2023-05-18T13:35:37;22.30;99.90
23100;DHT22;53791;50.696;4.396;2023-05-18T13:38:07;22.70;99.90
23100;DHT22;53791;50.696;4.396;2023-05-18T13:40:36;22.60;99.90
23100;DHT22;53791;50.696;4.396;2023-05-18T13:43:03;22.90;99.90
23100;DHT22;53791;50.696;4.396;2023-05-18T13:45:34;23.10;99.90
23100;DHT22;53791;50.696;4.396;2023-05-18T13:48:02;22.80;99.90
23100;DHT22;53791;50.696;4.396;2023-05-18T13:50:32;22.80;99.90
23100;DHT22;53791;50.696;4.396;2023-05-18T13:53:01;23.20;99.90
23100;DHT22;53791;50.696;4.396;2023-05-18T13:55:29;23.70;99.90
23100;DHT22;53791;50.696;4.396;2023-05-18T13:57:56;23.10;99.90
23100;DHT22;53791;50.696;4.396;2023-05-18T14:00:27;23.40;99.90
23100;DHT22;53791;50.696;4.396;2023-05-18T14:02:55;22.70;99.90
23100;DHT22;53791;50.696;4.396;2023-05-18T14:05:23;23.10;99.90
23100;DHT22;53791;50.696;4.396;2023-05-18T14:07:50;23.90;99.90
23100;DHT22;53791;50.696;4.396;2023-05-18T14:10:18;24.30;99.90
23100;DHT22;53791;50.696;4.396;2023-05-18T14:12:46;24.40;99.90
23100;DHT22;53791;50.696;4.396;2023-05-18T14:15:19;24.70;99.90
23100;DHT22;53791;50.696;4.396;2023-05-18T14:17:42;25.10;99.90
23100;DHT22;53791;50.696;4.396;2023-05-18T14:20:11;25.30;99.90
23100;DHT22;53791;50.696;4.396;2023-05-18T14:22:38;24.20;99.90
23100;DHT22;53791;50.696;4.396;2023-05-18T14:25:06;24.10;99.90
23100;DHT22;53791;50.696;4.396;2023-05-18T14:27:34;24.10;99.90
23100;DHT22;53791;50.696;4.396;2023-05-18T14:30:02;24.10;99.90
23100;DHT22;53791;50.696;4.396;2023-05-18T14:32:31;23.50;99.90
23100;DHT22;53791;50.696;4.396;2023-05-18T14:34:58;23.40;99.90
23100;DHT22;53791;50.696;4.396;2023-05-18T14:37:26;22.80;99.90
23100;DHT22;53791;50.696;4.396;2023-05-18T14:39:54;22.60;99.90
23100;DHT22;53791;50.696;4.396;2023-05-18T14:42:21;22.70;99.90
23100;DHT22;53791;50.696;4.396;2023-05-18T14:44:48;22.20;99.90
23100;DHT22;53791;50.696;4.396;2023-05-18T14:47:17;21.80;99.90
23100;DHT22;53791;50.696;4.396;2023-05-18T14:49:45;21.70;99.90
23100;DHT22;53791;50.696;4.396;2023-05-18T14:52:13;21.80;99.90
23100;DHT22;53791;50.696;4.396;2023-05-18T14:54:49;22.40;99.90
23100;DHT22;53791;50.696;4.396;2023-05-18T14:57:17;22.90;99.90
23100;DHT22;53791;50.696;4.396;2023-05-18T14:59:44;23.40;99.90
23100;DHT22;53791;50.696;4.396;2023-05-18T15:02:12;22.50;99.90
23100;DHT22;53791;50.696;4.396;2023-05-18T15:04:39;21.80;99.90
23100;DHT22;53791;50.696;4.396;2023-05-18T15:07:07;21.80;99.90
23100;DHT22;53791;50.696;4.396;2023-05-18T15:09:34;21.90;99.90
23100;DHT22;53791;50.696;4.396;2023-05-18T15:12:02;21.90;99.90
23100;DHT22;53791;50.696;4.396;2023-05-18T15:14:30;21.90;99.90
23100;DHT22;53791;50.696;4.396;2023-05-18T15:16:57;22.20;99.90
23100;DHT22;53791;50.696;4.396;2023-05-18T15:19:25;22.00;99.90
23100;DHT22;53791;50.696;4.396;2023-05-18T15:21:52;21.70;99.90
23100;DHT22;53791;50.696;4.396;2023-05-18T15:24:24;21.90;99.90
23100;DHT22;53791;50.696;4.396;2023-05-18T15:26:59;21.80;99.90
23100;DHT22;53791;50.696;4.396;2023-05-18T15:29:28;22.10;99.90
23100;DHT22;53791;50.696;4.396;2023-05-18T15:31:56;22.10;99.90
23100;DHT22;53791;50.696;4.396;2023-05-18T15:34:23;21.70;99.90
23100;DHT22;53791;50.696;4.396;2023-05-18T15:36:51;21.40;99.90
23100;DHT22;53791;50.696;4.396;2023-05-18T15:39:26;21.10;99.90
23100;DHT22;53791;50.696;4.396;2023-05-18T15:41:51;21.30;99.90
23100;DHT22;53791;50.696;4.396;2023-05-18T15:44:20;21.30;99.90
23100;DHT22;53791;50.696;4.396;2023-05-18T15:46:47;21.00;99.90
23100;DHT22;53791;50.696;4.396;2023-05-18T15:49:15;20.40;99.90
23100;DHT22;53791;50.696;4.396;2023-05-18T15:51:44;20.10;99.90
23100;DHT22;53791;50.696;4.396;2023-05-18T15:54:12;19.90;99.90
23100;DHT22;53791;50.696;4.396;2023-05-18T15:56:39;19.70;99.90
23100;DHT22;53791;50.696;4.396;2023-05-18T15:59:07;19.50;99.90